Reservoir, Mississippi
Current Conditions -  °F | °C
As of 12:54 PM on Friday 24 Oct 2014 (Local Time) from KJAN Reporting Station
Clear Clear  
Wind Chill: 22°   Ceiling: Unl
Heat Index: 22°   Visibility: 10mi
Dew Point:   Wind: 8mph
Humidity: 37%   Direction: 330°NNW
Pressure: 30.11"   Gusts: NA
Location:  32.2729°N, 89.9857°W
Report Text: KJAN 241754Z 33007KT 300V020 10SM CLR 22/07 A3011 RMK AO2 SLP194 T02220067 10222 20061 58015
Loading
Personal Weather Stations






























Interactive Weather Map
Tropical Storm Tracking
New forecast layout! Learn more

10-Day Weather Forecast

Advertisements
Track Severe Weather on mobile